Time;durP1;ratioP1;P1;durP2;ratioP2;P2;SDS_P1;SDS_P2;PMS_P1;PMS_P2;Temp;Humidity;BMP_temperature;BMP_pressure;BME280_temperature;BME280_humidity;BME280_pressure;Samples;Min_cycle;Max_cycle;Signal;HPM_P1;HPM_P2
2023/05/09 00:00:00;;;;;;;21.90;18.00;;;13.30;99.90;;;;;;4991558;28;20418;-73
2023/05/09 00:02:27;;;;;;;22.93;19.57;;;13.20;99.90;;;;;;4973619;28;20557;-73
2023/05/09 00:04:55;;;;;;;25.83;20.90;;;13.20;99.90;;;;;;4991399;28;20191;-73
2023/05/09 00:07:21;;;;;;;24.73;19.40;;;13.20;99.90;;;;;;4991446;28;20473;-74
2023/05/09 00:09:46;;;;;;;25.57;19.33;;;13.20;99.90;;;;;;4991344;28;20414;-73
2023/05/09 00:12:15;;;;;;;26.70;21.00;;;13.20;99.90;;;;;;4991099;28;20664;-74
2023/05/09 00:14:41;;;;;;;23.90;18.83;;;13.20;99.90;;;;;;4992374;28;20172;-73
2023/05/09 00:17:07;;;;;;;24.60;19.60;;;13.20;99.90;;;;;;4991435;28;20502;-74
2023/05/09 00:19:36;;;;;;;29.23;19.40;;;13.30;99.90;;;;;;4991476;28;20449;-74
2023/05/09 00:22:02;;;;;;;25.57;20.60;;;13.30;99.90;;;;;;4990332;28;20229;-72
2023/05/09 00:24:28;;;;;;;23.87;19.20;;;13.30;99.90;;;;;;4991615;28;20828;-74
2023/05/09 00:26:53;;;;;;;26.57;19.43;;;13.40;99.90;;;;;;4991846;28;20188;-73
2023/05/09 00:29:19;;;;;;;24.60;19.03;;;13.40;99.90;;;;;;4973956;28;20535;-74
2023/05/09 00:31:44;;;;;;;25.00;19.67;;;13.30;99.90;;;;;;4990064;28;20310;-73
2023/05/09 00:34:10;;;;;;;23.80;19.70;;;13.40;99.90;;;;;;4991293;28;20578;-74
2023/05/09 00:36:35;;;;;;;29.00;20.20;;;13.30;99.90;;;;;;4988882;28;20190;-73
2023/05/09 00:39:01;;;;;;;41.53;18.27;;;13.30;99.90;;;;;;4991739;28;20236;-72
2023/05/09 00:41:26;;;;;;;25.77;19.47;;;13.30;99.90;;;;;;4990371;28;20191;-73
2023/05/09 00:43:52;;;;;;;22.60;17.60;;;13.30;99.90;;;;;;4990983;28;20171;-74
2023/05/09 00:46:17;;;;;;;25.93;18.93;;;13.30;99.90;;;;;;4991092;28;20169;-74
2023/05/09 00:48:43;;;;;;;24.10;18.60;;;13.30;99.90;;;;;;4973552;28;20182;-71
2023/05/09 00:51:12;;;;;;;21.07;17.67;;;13.30;99.90;;;;;;4989826;28;20687;-73
2023/05/09 00:53:38;;;;;;;26.30;19.27;;;13.40;99.90;;;;;;4989857;28;20310;-73
2023/05/09 00:56:04;;;;;;;24.73;18.50;;;13.40;99.90;;;;;;4989640;28;20549;-73
2023/05/09 00:58:32;;;;;;;26.77;19.57;;;13.40;99.90;;;;;;5003849;28;20750;-74
2023/05/09 02:31:36;;;;;;;32.60;24.40;;;13.30;99.90;;;;;;5567435;22;20511;-75
2023/05/09 02:34:03;;;;;;;34.53;24.47;;;13.30;99.90;;;;;;5003322;28;20545;-73
2023/05/09 02:36:30;;;;;;;33.90;25.63;;;13.30;99.90;;;;;;5026361;28;20469;-74
2023/05/09 02:38:56;;;;;;;32.53;23.43;;;13.30;99.90;;;;;;5022216;28;20437;-75
2023/05/09 02:41:21;;;;;;;36.60;25.33;;;13.30;99.90;;;;;;5000913;28;20918;-72
2023/05/09 02:43:47;;;;;;;36.53;23.93;;;13.30;99.90;;;;;;5020982;28;20205;-74
2023/05/09 02:46:12;;;;;;;30.53;23.83;;;13.30;99.90;;;;;;5002535;28;20691;-75
2023/05/09 02:48:38;;;;;;;33.27;23.40;;;13.40;99.90;;;;;;5020122;28;20539;-74
2023/05/09 02:51:03;;;;;;;30.83;24.10;;;13.30;99.90;;;;;;5020841;28;20305;-71
2023/05/09 02:53:29;;;;;;;34.77;23.67;;;13.30;99.90;;;;;;5012602;28;20186;-74
2023/05/09 02:55:55;;;;;;;39.70;25.27;;;13.30;99.90;;;;;;5028273;28;20293;-75
2023/05/09 02:58:20;;;;;;;38.40;25.70;;;13.30;99.90;;;;;;5016876;28;20543;-74
2023/05/09 03:00:46;;;;;;;37.63;26.70;;;13.40;99.90;;;;;;5023140;28;20232;-75
2023/05/09 03:03:12;;;;;;;41.20;26.53;;;13.30;99.90;;;;;;5022089;28;20188;-75
2023/05/09 03:05:37;;;;;;;41.33;27.67;;;13.30;99.90;;;;;;5023648;28;20185;-74
2023/05/09 03:08:03;;;;;;;34.67;24.83;;;13.30;99.90;;;;;;5023761;28;20200;-74
2023/05/09 03:10:29;;;;;;;40.03;26.60;;;13.30;99.90;;;;;;5023439;28;20193;-74
2023/05/09 03:12:54;;;;;;;34.07;25.73;;;13.30;99.90;;;;;;5019140;28;20872;-74
2023/05/09 03:15:20;;;;;;;39.43;26.10;;;13.30;99.90;;;;;;5019944;28;20199;-74
2023/05/09 03:17:49;;;;;;;36.27;26.47;;;13.30;99.90;;;;;;5020356;28;20179;-74
2023/05/09 03:20:14;;;;;;;35.60;27.20;;;13.20;99.90;;;;;;5019426;28;20187;-75
2023/05/09 03:22:40;;;;;;;42.90;29.93;;;13.20;99.90;;;;;;5009896;28;20453;-74
2023/05/09 03:25:09;;;;;;;42.70;27.30;;;13.20;99.90;;;;;;5027575;28;20190;-74
2023/05/09 03:27:34;;;;;;;39.20;25.07;;;13.20;99.90;;;;;;5026214;28;20174;-75
2023/05/09 03:30:00;;;;;;;36.77;26.90;;;13.20;99.90;;;;;;5015027;28;20501;-74
2023/05/09 03:32:26;;;;;;;42.30;28.27;;;13.10;99.90;;;;;;5030105;28;20242;-74
2023/05/09 03:34:51;;;;;;;43.50;28.27;;;13.10;99.90;;;;;;5014998;28;20269;-72
2023/05/09 03:37:17;;;;;;;41.23;28.20;;;13.10;99.90;;;;;;5002425;28;20869;-75
2023/05/09 03:39:42;;;;;;;41.40;27.80;;;13.10;99.90;;;;;;5018633;28;20268;-74
2023/05/09 03:42:08;;;;;;;44.83;28.47;;;13.00;99.90;;;;;;5020215;28;20211;-74
2023/05/09 03:44:33;;;;;;;42.93;29.67;;;13.00;99.90;;;;;;5019748;28;20183;-75
2023/05/09 03:46:59;;;;;;;41.00;29.03;;;13.00;99.90;;;;;;5019074;28;20195;-75
2023/05/09 03:49:24;;;;;;;46.20;29.00;;;13.00;99.90;;;;;;5011258;28;20182;-74
2023/05/09 03:51:50;;;;;;;44.10;28.93;;;13.00;99.90;;;;;;5000975;28;20301;-74
2023/05/09 03:54:15;;;;;;;39.67;28.23;;;13.00;99.90;;;;;;5019571;28;20194;-75
2023/05/09 03:56:44;;;;;;;45.47;30.87;;;13.00;99.90;;;;;;5019327;28;20222;-74
2023/05/09 03:59:09;;;;;;;39.20;28.70;;;13.00;99.90;;;;;;5019265;28;20193;-75
2023/05/09 04:01:35;;;;;;;48.60;29.10;;;13.00;99.90;;;;;;5010148;28;20465;-73
2023/05/09 04:04:00;;;;;;;35.53;28.53;;;13.00;99.90;;;;;;5010570;28;20197;-72
2023/05/09 04:06:26;;;;;;;44.20;29.70;;;13.00;99.90;;;;;;5015125;28;20193;-73
2023/05/09 04:08:51;;;;;;;43.93;29.53;;;13.00;99.90;;;;;;5022977;28;20253;-73
2023/05/09 04:11:17;;;;;;;43.50;29.73;;;13.10;99.90;;;;;;5018136;28;20210;-72
2023/05/09 04:13:42;;;;;;;45.00;29.40;;;13.10;99.90;;;;;;5019035;28;20720;-72
2023/05/09 04:16:08;;;;;;;45.20;30.13;;;13.10;99.90;;;;;;5018493;28;20581;-73
2023/05/09 04:18:33;;;;;;;44.53;29.60;;;13.10;99.90;;;;;;5019192;28;20301;-72
2023/05/09 04:21:02;;;;;;;39.20;28.83;;;13.10;99.90;;;;;;5018793;28;20210;-73
2023/05/09 04:23:27;;;;;;;44.97;29.83;;;13.10;99.90;;;;;;5015116;28;20178;-73
2023/05/09 04:25:53;;;;;;;41.60;29.60;;;13.10;99.90;;;;;;5022326;28;20769;-72
2023/05/09 04:28:21;;;;;;;48.53;30.53;;;13.10;99.90;;;;;;5018640;28;20612;-73
2023/05/09 04:30:47;;;;;;;40.10;28.37;;;13.10;99.90;;;;;;5018523;28;20221;-73
2023/05/09 04:33:12;;;;;;;41.33;27.83;;;13.10;99.90;;;;;;5019407;28;20475;-72
2023/05/09 04:35:41;;;;;;;42.67;29.10;;;13.10;99.90;;;;;;5023939;28;20215;-72
2023/05/09 04:38:06;;;;;;;43.93;29.70;;;13.10;99.90;;;;;;5018596;28;20194;-72
2023/05/09 04:40:32;;;;;;;39.23;27.17;;;13.10;99.90;;;;;;5018352;28;20436;-72
2023/05/09 04:43:00;;;;;;;38.43;29.80;;;13.20;99.90;;;;;;5025954;28;20224;-73
2023/05/09 04:45:26;;;;;;;44.57;26.83;;;13.20;99.90;;;;;;5018148;28;20190;-73
2023/05/09 04:47:52;;;;;;;36.97;26.10;;;13.30;99.90;;;;;;5018201;28;20474;-72
2023/05/09 04:50:20;;;;;;;42.30;28.03;;;13.30;99.90;;;;;;5017976;28;20191;-70
2023/05/09 04:52:45;;;;;;;40.50;29.33;;;13.40;99.90;;;;;;5017859;28;20214;-72
2023/05/09 04:55:11;;;;;;;41.97;27.80;;;13.50;99.90;;;;;;5019909;28;20476;-72
2023/05/09 04:57:36;;;;;;;37.90;27.70;;;13.50;99.90;;;;;;5021885;28;20182;-73
2023/05/09 05:00:05;;;;;;;40.00;26.70;;;13.60;99.90;;;;;;5021297;28;20611;-73
2023/05/09 05:02:31;;;;;;;37.67;27.10;;;13.70;99.90;;;;;;5015982;28;20297;-73
2023/05/09 05:04:56;;;;;;;38.77;26.33;;;13.80;99.90;;;;;;5018144;28;20529;-71
2023/05/09 05:07:22;;;;;;;36.10;25.93;;;13.80;99.90;;;;;;5025876;28;20202;-72
2023/05/09 05:09:47;;;;;;;34.37;25.40;;;13.90;99.90;;;;;;5017230;28;20185;-72
2023/05/09 05:12:13;;;;;;;37.00;26.47;;;14.00;99.90;;;;;;5018042;28;20209;-73
2023/05/09 05:14:38;;;;;;;33.20;25.00;;;14.10;99.90;;;;;;5022946;28;20186;-71
2023/05/09 05:17:04;;;;;;;37.80;24.40;;;14.30;99.90;;;;;;5023869;28;20237;-75
2023/05/09 05:19:30;;;;;;;36.53;24.53;;;14.50;99.90;;;;;;5022691;28;20201;-73
2023/05/09 05:21:55;;;;;;;32.07;23.87;;;14.60;99.90;;;;;;5024923;28;20202;-73
2023/05/09 05:24:21;;;;;;;35.27;25.80;;;14.70;99.90;;;;;;5010646;28;20268;-73
2023/05/09 05:26:46;;;;;;;35.00;24.73;;;14.80;99.90;;;;;;5017751;28;20530;-72
2023/05/09 05:29:12;;;;;;;31.13;23.97;;;14.70;99.90;;;;;;5008814;28;20207;-73
2023/05/09 05:31:37;;;;;;;31.00;24.13;;;14.60;99.90;;;;;;5013921;28;20265;-73
2023/05/09 05:34:02;;;;;;;39.30;25.80;;;14.70;99.90;;;;;;5021229;28;20247;-74
2023/05/09 05:36:28;;;;;;;37.90;24.77;;;14.80;99.90;;;;;;5016857;28;20215;-73
2023/05/09 05:38:53;;;;;;;37.03;25.97;;;14.90;99.90;;;;;;5010333;28;20194;-73
2023/05/09 05:41:19;;;;;;;32.13;24.07;;;15.00;99.90;;;;;;5016564;28;20584;-73
2023/05/09 05:43:45;;;;;;;33.37;25.13;;;15.10;99.90;;;;;;5018323;28;20186;-73
2023/05/09 05:46:13;;;;;;;37.30;25.53;;;15.10;99.90;;;;;;5021517;28;20226;-73
2023/05/09 05:48:39;;;;;;;36.33;25.13;;;15.00;99.90;;;;;;5022273;28;20190;-74
2023/05/09 05:51:05;;;;;;;31.83;24.17;;;15.10;99.90;;;;;;5020947;28;20460;-70
2023/05/09 05:53:33;;;;;;;30.13;23.80;;;15.10;99.90;;;;;;5021699;28;20190;-73
2023/05/09 05:55:59;;;;;;;37.23;25.53;;;15.20;99.90;;;;;;5021744;28;21011;-72
2023/05/09 05:58:25;;;;;;;29.87;23.50;;;15.30;99.90;;;;;;5024897;28;20429;-73
2023/05/09 06:00:53;;;;;;;36.80;25.20;;;15.40;99.90;;;;;;5024873;28;20209;-73
2023/05/09 06:03:19;;;;;;;35.93;24.80;;;15.40;99.90;;;;;;5024189;28;20421;-73
2023/05/09 06:05:46;;;;;;;33.53;24.33;;;15.60;99.90;;;;;;5024778;28;20773;-73
2023/05/09 06:08:11;;;;;;;35.07;24.50;;;15.70;99.90;;;;;;5023247;28;20554;-73
2023/05/09 06:10:37;;;;;;;28.13;22.57;;;16.00;99.90;;;;;;5021090;28;20455;-73
2023/05/09 06:13:02;;;;;;;26.50;22.40;;;16.20;99.90;;;;;;5020994;28;20194;-72
2023/05/09 06:15:28;;;;;;;29.30;23.03;;;16.50;99.90;;;;;;5028807;28;20213;-72
2023/05/09 06:17:53;;;;;;;30.90;23.97;;;16.80;99.90;;;;;;5020889;28;20257;-73
2023/05/09 06:20:19;;;;;;;30.67;25.03;;;17.10;99.90;;;;;;5021619;28;20186;-73
2023/05/09 06:22:45;;;;;;;34.10;23.00;;;17.40;99.90;;;;;;5026755;28;20189;-72
2023/05/09 06:25:10;;;;;;;27.43;22.13;;;17.50;99.90;;;;;;5024213;28;20256;-73
2023/05/09 06:27:37;;;;;;;25.43;21.73;;;17.60;99.90;;;;;;5019692;28;20648;-73
2023/05/09 06:30:03;;;;;;;28.00;21.97;;;17.80;99.90;;;;;;5021262;28;20187;-71
2023/05/09 06:32:28;;;;;;;31.57;22.10;;;17.80;99.90;;;;;;5028202;28;20540;-73
2023/05/09 06:34:54;;;;;;;30.17;23.37;;;17.70;99.90;;;;;;5019998;28;20182;-73
2023/05/09 06:37:19;;;;;;;42.00;24.57;;;17.80;99.90;;;;;;5021827;28;20206;-73
2023/05/09 06:39:45;;;;;;;37.60;23.30;;;17.60;99.90;;;;;;5020881;28;20185;-72
2023/05/09 06:42:10;;;;;;;38.33;23.40;;;17.50;99.90;;;;;;5028120;28;20288;-73
2023/05/09 06:44:36;;;;;;;37.67;21.73;;;17.40;99.90;;;;;;5017108;28;20204;-72
2023/05/09 06:47:01;;;;;;;27.40;19.90;;;17.30;99.90;;;;;;5024525;28;20194;-70
2023/05/09 06:49:27;;;;;;;26.30;22.00;;;17.40;99.90;;;;;;5021086;28;20186;-74
2023/05/09 06:51:52;;;;;;;27.50;20.03;;;17.20;99.90;;;;;;5027367;28;20209;-73
2023/05/09 06:54:18;;;;;;;30.57;23.17;;;17.00;99.90;;;;;;5016298;28;20685;-73
2023/05/09 06:56:43;;;;;;;26.73;22.43;;;17.00;99.90;;;;;;5023390;28;20709;-71
2023/05/09 06:59:12;;;;;;;32.60;21.70;;;16.90;99.90;;;;;;5023492;28;20245;-73
2023/05/09 07:01:41;;;;;;;31.10;21.00;;;16.90;99.90;;;;;;5020109;28;20260;-73
2023/05/09 07:04:06;;;;;;;32.43;22.43;;;17.00;99.90;;;;;;5014098;28;20488;-73
2023/05/09 07:06:32;;;;;;;26.57;21.00;;;17.10;99.90;;;;;;5032619;28;20941;-73
2023/05/09 07:08:57;;;;;;;25.60;20.57;;;17.40;99.90;;;;;;5024955;28;20202;-73
2023/05/09 07:11:23;;;;;;;28.90;22.00;;;17.70;99.90;;;;;;5015558;28;20635;-72
2023/05/09 07:13:48;;;;;;;29.13;20.73;;;17.80;99.90;;;;;;5018365;28;20178;-73
2023/05/09 07:16:14;;;;;;;27.40;20.70;;;18.20;99.90;;;;;;5021758;28;20762;-73
2023/05/09 07:18:40;;;;;;;27.03;18.77;;;18.30;99.90;;;;;;5024408;28;20186;-70
2023/05/09 07:21:06;;;;;;;31.50;20.00;;;18.30;99.90;;;;;;5022283;28;20506;-69
2023/05/09 07:23:31;;;;;;;25.90;20.17;;;18.30;99.90;;;;;;5023874;28;20192;-74
2023/05/09 07:25:57;;;;;;;24.17;19.20;;;18.30;99.90;;;;;;5023462;28;20698;-73
2023/05/09 07:28:23;;;;;;;26.40;20.37;;;18.40;99.90;;;;;;5023482;28;20560;-72
2023/05/09 07:30:49;;;;;;;23.67;18.73;;;18.60;99.90;;;;;;5017461;28;20449;-73
2023/05/09 07:33:14;;;;;;;24.80;20.53;;;19.10;99.90;;;;;;5027516;28;20428;-73
2023/05/09 07:35:43;;;;;;;21.60;19.07;;;19.50;99.90;;;;;;5019706;28;20288;-73
2023/05/09 07:38:09;;;;;;;25.20;19.50;;;20.00;99.90;;;;;;5021277;28;20182;-72
2023/05/09 07:40:37;;;;;;;21.90;18.83;;;20.30;99.90;;;;;;5020385;28;20433;-72
2023/05/09 07:43:03;;;;;;;21.90;18.40;;;20.40;99.90;;;;;;5010848;28;20515;-70
2023/05/09 07:45:28;;;;;;;32.67;18.80;;;20.50;99.90;;;;;;5016179;28;20515;-73
2023/05/09 07:47:54;;;;;;;22.30;17.83;;;20.50;99.90;;;;;;5024243;28;20178;-73
2023/05/09 07:50:19;;;;;;;31.03;18.13;;;20.40;99.90;;;;;;5021452;28;20655;-70
2023/05/09 07:52:45;;;;;;;22.43;16.87;;;20.40;99.90;;;;;;5016160;28;20174;-73
2023/05/09 07:55:11;;;;;;;20.07;17.80;;;20.50;99.90;;;;;;5022203;28;20269;-72
2023/05/09 07:57:37;;;;;;;18.00;16.03;;;20.80;99.90;;;;;;5019664;28;20600;-73
2023/05/09 08:00:05;;;;;;;20.60;17.83;;;21.10;99.90;;;;;;5020722;28;20832;-72
2023/05/09 08:02:30;;;;;;;17.57;14.40;;;21.40;99.90;;;;;;5022543;28;20441;-72
2023/05/09 08:04:56;;;;;;;19.90;13.73;;;21.60;99.90;;;;;;5022563;28;20437;-72
2023/05/09 08:07:21;;;;;;;19.27;14.93;;;21.90;99.90;;;;;;5014140;28;20194;-69
2023/05/09 08:09:47;;;;;;;18.87;15.20;;;22.40;99.90;;;;;;5022680;28;20200;-72
2023/05/09 08:12:12;;;;;;;17.13;14.43;;;22.50;99.90;;;;;;5013395;28;20907;-72
2023/05/09 08:14:38;;;;;;;16.47;14.53;;;22.70;99.90;;;;;;5022093;28;20198;-72
2023/05/09 08:17:03;;;;;;;14.27;12.77;;;22.60;99.90;;;;;;5022523;28;20214;-72
2023/05/09 08:19:29;;;;;;;14.33;12.90;;;22.60;99.90;;;;;;5019360;28;20717;-73
2023/05/09 08:21:54;;;;;;;14.60;12.17;;;22.70;99.90;;;;;;5016323;28;20206;-72
2023/05/09 08:24:20;;;;;;;13.67;11.17;;;22.80;99.90;;;;;;5028866;28;20296;-72
2023/05/09 08:26:45;;;;;;;14.93;13.03;;;23.00;99.90;;;;;;5024802;28;20189;-71
2023/05/09 08:29:11;;;;;;;12.80;11.60;;;23.20;99.90;;;;;;5014041;28;20541;-73
2023/05/09 08:31:37;;;;;;;15.90;12.60;;;23.50;99.90;;;;;;5025244;28;20214;-72
2023/05/09 08:34:02;;;;;;;10.80;9.33;;;23.60;99.90;;;;;;5018034;28;20651;-70
2023/05/09 08:36:28;;;;;;;12.03;10.83;;;23.40;99.90;;;;;;5021251;28;20232;-72
2023/05/09 08:38:55;;;;;;;17.03;15.27;;;23.10;99.90;;;;;;5016212;28;20202;-73
2023/05/09 08:41:26;;;;;;;16.67;13.70;;;22.70;99.90;;;;;;5019101;28;20225;-72
2023/05/09 08:43:53;;;;;;;19.50;14.03;;;22.90;99.90;;;;;;5022066;28;20990;-72
2023/05/09 08:46:24;;;;;;;14.00;12.50;;;23.30;99.90;;;;;;5021652;28;20519;-73
2023/05/09 08:48:50;;;;;;;15.83;13.10;;;23.40;99.90;;;;;;5030430;28;20981;-74
2023/05/09 08:51:18;;;;;;;16.80;14.33;;;22.90;99.90;;;;;;5012552;28;20449;-73
2023/05/09 08:53:44;;;;;;;19.20;15.47;;;22.40;99.90;;;;;;5021489;28;20477;-72
2023/05/09 08:56:10;;;;;;;17.07;13.30;;;22.20;99.90;;;;;;5021462;28;20519;-71
2023/05/09 08:58:39;;;;;;;20.93;14.33;;;22.60;99.90;;;;;;5021924;28;20283;-73
2023/05/09 09:01:05;;;;;;;13.13;11.93;;;23.20;99.90;;;;;;5014016;28;20225;-72
2023/05/09 09:03:32;;;;;;;17.03;11.70;;;23.70;99.90;;;;;;5020810;28;20508;-73
2023/05/09 09:05:58;;;;;;;13.77;12.23;;;23.10;99.90;;;;;;5003677;28;20436;-73
2023/05/09 09:08:25;;;;;;;15.50;13.40;;;22.80;99.90;;;;;;5019377;28;20444;-73
2023/05/09 09:10:51;;;;;;;13.40;11.93;;;22.40;99.90;;;;;;5018060;28;20457;-73
2023/05/09 09:13:17;;;;;;;12.60;10.47;;;21.90;99.90;;;;;;4992718;28;20433;-73
2023/05/09 09:15:45;;;;;;;16.40;12.67;;;21.60;99.90;;;;;;5021114;28;21288;-70
2023/05/09 09:18:20;;;;;;;12.77;10.40;;;21.40;99.90;;;;;;5021289;28;20451;-72
2023/05/09 09:20:55;;;;;;;13.73;12.30;;;21.30;99.90;;;;;;5016448;28;20574;-72
2023/05/09 09:23:24;;;;;;;14.07;12.57;;;21.10;99.90;;;;;;5021507;28;20882;-72
2023/05/09 09:26:00;;;;;;;14.00;12.10;;;21.10;99.90;;;;;;5016081;28;20434;-73
2023/05/09 09:28:26;;;;;;;14.20;12.70;;;21.20;99.90;;;;;;5017938;28;20495;-72
2023/05/09 09:30:52;;;;;;;14.53;12.07;;;21.20;99.90;;;;;;5017624;28;20469;-73
2023/05/09 09:33:28;;;;;;;14.30;12.57;;;21.00;99.90;;;;;;5018082;28;20441;-73
2023/05/09 09:35:55;;;;;;;12.30;10.97;;;21.20;99.90;;;;;;5023653;28;20595;-73
2023/05/09 09:38:22;;;;;;;12.83;10.47;;;21.70;99.90;;;;;;5011197;28;20438;-73
2023/05/09 09:40:50;;;;;;;12.60;11.33;;;22.10;99.90;;;;;;5021272;28;20506;-73
2023/05/09 09:43:16;;;;;;;13.60;12.20;;;22.20;99.90;;;;;;5020222;28;20493;-72
2023/05/09 09:45:42;;;;;;;14.20;12.70;;;22.40;99.90;;;;;;5016293;28;20453;-72
2023/05/09 09:48:07;;;;;;;12.40;11.10;;;22.30;99.90;;;;;;5018462;28;20292;-73
2023/05/09 09:50:32;;;;;;;11.57;10.17;;;22.30;99.90;;;;;;5017545;28;20437;-73
2023/05/09 09:53:02;;;;;;;11.40;10.30;;;22.30;99.90;;;;;;5008076;28;20222;-72
2023/05/09 09:55:27;;;;;;;13.63;11.43;;;22.30;99.90;;;;;;5017445;28;20533;-73
2023/05/09 09:57:54;;;;;;;16.93;12.47;;;22.20;99.90;;;;;;5018207;28;20437;-73
2023/05/09 10:00:26;;;;;;;12.83;11.33;;;22.10;99.90;;;;;;5017641;28;20194;-70
2023/05/09 10:02:54;;;;;;;14.50;10.43;;;22.10;99.90;;;;;;5017190;28;20449;-72
2023/05/09 10:05:27;;;;;;;11.43;10.40;;;22.10;99.90;;;;;;5017432;28;20431;-74
2023/05/09 10:07:55;;;;;;;11.83;10.43;;;22.10;99.90;;;;;;5018049;28;20830;-73
2023/05/09 10:10:21;;;;;;;15.00;10.10;;;22.30;99.90;;;;;;5025833;28;20513;-72
2023/05/09 10:12:49;;;;;;;14.90;12.53;;;22.70;99.90;;;;;;5013338;28;20417;-73
2023/05/09 10:15:19;;;;;;;14.33;12.43;;;23.00;99.90;;;;;;5021173;28;20429;-70
2023/05/09 10:17:44;;;;;;;12.97;11.67;;;22.80;99.90;;;;;;5016584;28;20541;-73
2023/05/09 10:20:12;;;;;;;11.20;9.30;;;22.30;99.90;;;;;;5017741;28;20520;-73
2023/05/09 10:22:39;;;;;;;10.53;9.50;;;22.00;99.90;;;;;;5012783;28;20202;-73
2023/05/09 10:25:12;;;;;;;13.20;11.73;;;21.90;99.90;;;;;;5021529;28;20428;-73
2023/05/09 10:27:43;;;;;;;15.00;11.20;;;21.60;99.90;;;;;;5018192;28;20484;-74
2023/05/09 10:30:12;;;;;;;11.10;9.97;;;21.40;99.90;;;;;;5017034;28;20432;-73
2023/05/09 10:32:57;;;;;;;13.90;9.30;;;21.50;99.90;;;;;;5014495;28;20464;-74
2023/05/09 10:35:29;;;;;;;13.60;10.90;;;21.70;99.90;;;;;;5023916;28;20929;-71
2023/05/09 10:37:58;;;;;;;11.07;10.07;;;21.90;99.90;;;;;;5019129;28;20456;-74
2023/05/09 10:40:24;;;;;;;11.70;10.60;;;22.00;99.90;;;;;;5021770;28;20468;-74
2023/05/09 10:42:50;;;;;;;11.77;10.57;;;22.30;99.90;;;;;;5023327;28;20502;-73
2023/05/09 10:45:15;;;;;;;9.67;8.67;;;22.70;99.90;;;;;;5023983;28;20437;-73
2023/05/09 10:47:43;;;;;;;10.87;9.87;;;23.30;99.90;;;;;;5020602;28;20198;-73
2023/05/09 10:50:11;;;;;;;12.37;11.27;;;23.90;99.90;;;;;;5019812;28;20204;-74
2023/05/09 10:53:05;;;;;;;12.00;10.90;;;23.90;99.90;;;;;;5022823;28;20452;-73
2023/05/09 10:55:51;;;;;;;15.63;11.17;;;24.10;99.90;;;;;;5024530;28;20421;-74
2023/05/09 10:58:32;;;;;;;12.13;9.40;;;24.30;99.90;;;;;;5035813;28;20511;-72
2023/05/09 11:01:00;;;;;;;11.70;10.70;;;23.80;99.90;;;;;;5013688;28;20468;-75
2023/05/09 11:03:27;;;;;;;12.77;11.53;;;23.50;99.90;;;;;;5019752;28;20433;-74
2023/05/09 11:06:00;;;;;;;11.87;10.67;;;23.60;99.90;;;;;;4995269;28;20437;-74
2023/05/09 11:08:30;;;;;;;10.83;9.73;;;24.00;99.90;;;;;;5021260;28;20441;-74
2023/05/09 11:10:59;;;;;;;12.13;9.43;;;24.20;99.90;;;;;;5017137;28;20969;-75
2023/05/09 11:13:30;;;;;;;14.13;12.60;;;24.30;99.90;;;;;;5016915;28;20440;-75
2023/05/09 11:16:08;;;;;;;14.83;11.50;;;23.80;99.90;;;;;;5023173;28;20465;-74
2023/05/09 11:18:48;;;;;;;13.30;10.07;;;23.80;99.90;;;;;;5023921;28;20418;-74
2023/05/09 11:21:13;;;;;;;10.13;9.13;;;24.20;99.90;;;;;;5030566;28;20447;-75
2023/05/09 11:23:39;;;;;;;10.17;9.13;;;24.40;99.90;;;;;;5007858;28;20418;-74
2023/05/09 11:26:08;;;;;;;9.60;8.70;;;24.00;99.90;;;;;;4997303;28;20224;-76
2023/05/09 11:28:35;;;;;;;8.60;7.80;;;24.10;99.90;;;;;;5024735;28;20240;-75
2023/05/09 11:31:15;;;;;;;9.90;8.90;;;24.40;99.90;;;;;;5006637;28;20578;-74
2023/05/09 11:33:43;;;;;;;9.17;8.33;;;24.60;99.90;;;;;;5012187;28;20510;-71
2023/05/09 11:36:19;;;;;;;15.90;9.93;;;24.20;99.90;;;;;;5018644;28;20472;-74
2023/05/09 11:38:46;;;;;;;10.00;9.00;;;24.20;99.90;;;;;;5019824;28;20429;-73
2023/05/09 11:41:12;;;;;;;8.60;7.70;;;24.10;99.90;;;;;;5026351;28;20452;-73
2023/05/09 11:43:39;;;;;;;8.30;7.60;;;24.40;99.90;;;;;;4996259;28;20436;-73
2023/05/09 11:46:07;;;;;;;6.53;5.30;;;24.30;99.90;;;;;;5002623;28;20439;-78
2023/05/09 11:48:37;;;;;;;7.53;5.37;;;24.20;99.90;;;;;;4994152;28;20434;-72
2023/05/09 11:51:03;;;;;;;4.93;4.50;;;23.90;99.90;;;;;;5002294;28;20472;-71
2023/05/09 11:53:29;;;;;;;3.83;3.53;;;23.90;99.90;;;;;;5003019;28;20441;-72
2023/05/09 11:56:02;;;;;;;2.80;2.63;;;24.10;99.90;;;;;;5018287;28;20218;-72
2023/05/09 11:58:27;;;;;;;3.23;2.93;;;23.70;99.90;;;;;;4987011;28;20183;-73
2023/05/09 12:00:53;;;;;;;3.43;3.20;;;23.70;99.90;;;;;;4992553;28;20468;-71
2023/05/09 12:03:19;;;;;;;8.53;3.47;;;23.70;99.90;;;;;;5027595;28;20228;-73
2023/05/09 12:05:47;;;;;;;5.90;3.47;;;23.60;99.90;;;;;;5030514;28;20424;-72
2023/05/09 12:08:14;;;;;;;3.10;2.80;;;23.90;99.90;;;;;;5032115;28;20216;-73
2023/05/09 12:10:40;;;;;;;3.03;2.73;;;23.90;99.90;;;;;;5023024;28;20432;-73
2023/05/09 12:13:06;;;;;;;2.73;2.53;;;24.10;99.90;;;;;;5021122;28;20436;-72
2023/05/09 12:15:37;;;;;;;2.27;2.17;;;24.10;99.90;;;;;;5021255;28;20517;-72
2023/05/09 12:18:05;;;;;;;2.83;2.33;;;24.10;99.90;;;;;;4983440;28;20186;-71
2023/05/09 12:20:46;;;;;;;2.90;2.70;;;24.10;99.90;;;;;;5014561;28;20436;-70
2023/05/09 12:23:13;;;;;;;2.23;2.07;;;24.00;99.90;;;;;;5022853;28;20520;-73
2023/05/09 12:25:46;;;;;;;3.17;2.33;;;24.10;99.90;;;;;;5021221;28;20509;-72
2023/05/09 12:28:12;;;;;;;2.70;2.07;;;23.80;99.90;;;;;;5022845;28;20436;-73
2023/05/09 12:30:38;;;;;;;2.03;1.93;;;23.80;99.90;;;;;;5021819;28;20781;-74
2023/05/09 12:33:04;;;;;;;2.40;2.30;;;23.50;99.90;;;;;;5029619;28;20233;-72
2023/05/09 12:35:29;;;;;;;2.80;2.60;;;23.60;99.90;;;;;;5021767;28;20182;-73
2023/05/09 12:37:57;;;;;;;1.80;1.70;;;23.70;99.90;;;;;;5017758;28;20191;-73
2023/05/09 12:40:23;;;;;;;2.60;2.40;;;23.70;99.90;;;;;;5018818;28;20186;-71
2023/05/09 12:42:48;;;;;;;2.70;2.57;;;23.70;99.90;;;;;;5021101;28;20473;-73
2023/05/09 12:45:14;;;;;;;6.30;1.90;;;23.60;99.90;;;;;;5023196;28;20517;-73
2023/05/09 12:47:44;;;;;;;4.23;3.93;;;23.50;99.90;;;;;;5012577;28;20191;-72
2023/05/09 12:50:11;;;;;;;5.20;3.30;;;23.50;99.90;;;;;;5022249;28;20194;-73
2023/05/09 12:52:38;;;;;;;3.33;3.13;;;23.60;99.90;;;;;;5019013;28;20817;-73
2023/05/09 12:55:10;;;;;;;4.00;3.70;;;23.60;99.90;;;;;;5017815;28;20441;-73
2023/05/09 12:57:35;;;;;;;2.87;2.07;;;23.50;99.90;;;;;;5019852;28;20464;-72
2023/05/09 13:00:05;;;;;;;2.87;2.67;;;23.50;99.90;;;;;;5030105;28;20462;-73
2023/05/09 13:02:35;;;;;;;2.80;2.07;;;23.50;99.90;;;;;;5020753;28;20289;-73
2023/05/09 13:05:13;;;;;;;1.47;1.30;;;23.50;99.90;;;;;;5021410;28;20433;-73
2023/05/09 13:07:41;;;;;;;1.77;1.67;;;23.40;99.90;;;;;;5021424;28;20449;-73
2023/05/09 13:10:21;;;;;;;4.27;1.77;;;23.40;99.90;;;;;;5021738;28;20435;-74
2023/05/09 13:12:48;;;;;;;1.50;1.40;;;23.10;99.90;;;;;;5009195;28;20436;-73
2023/05/09 13:15:15;;;;;;;1.80;1.70;;;23.00;99.90;;;;;;5018222;28;20434;-73
2023/05/09 13:17:41;;;;;;;1.40;1.30;;;23.10;99.90;;;;;;5020075;28;20994;-73
2023/05/09 13:20:08;;;;;;;1.77;1.67;;;23.10;99.90;;;;;;5021452;28;20432;-70
2023/05/09 13:22:33;;;;;;;2.30;1.23;;;23.00;99.90;;;;;;5020205;28;20221;-70
2023/05/09 13:24:59;;;;;;;1.40;1.30;;;22.80;99.90;;;;;;5021042;28;20437;-71
2023/05/09 13:27:26;;;;;;;1.50;1.27;;;23.10;99.90;;;;;;5021562;28;20197;-70
2023/05/09 13:29:52;;;;;;;4.50;1.30;;;23.20;99.90;;;;;;5017919;28;20523;-71
2023/05/09 13:32:17;;;;;;;2.90;2.67;;;23.40;99.90;;;;;;5019501;28;20459;-71
2023/05/09 13:34:43;;;;;;;3.10;2.80;;;23.30;99.90;;;;;;5018290;28;20204;-69
2023/05/09 13:37:11;;;;;;;2.63;2.33;;;23.00;99.90;;;;;;5018065;28;20240;-70
2023/05/09 13:39:37;;;;;;;3.50;3.20;;;23.00;99.90;;;;;;5025742;28;20670;-70
2023/05/09 13:42:02;;;;;;;3.07;2.17;;;22.90;99.90;;;;;;4972236;28;20921;-69
2023/05/09 13:44:31;;;;;;;2.47;2.37;;;22.80;99.90;;;;;;5007615;28;20361;-68
2023/05/09 13:46:58;;;;;;;4.43;2.27;;;22.80;99.90;;;;;;5012012;28;20222;-72
2023/05/09 13:49:24;;;;;;;2.10;2.00;;;22.70;99.90;;;;;;5019767;28;20535;-69
2023/05/09 13:51:50;;;;;;;2.23;1.80;;;22.60;99.90;;;;;;5015296;28;20540;-71
2023/05/09 13:54:18;;;;;;;2.80;2.33;;;22.70;99.90;;;;;;5016163;28;20449;-70
2023/05/09 13:56:44;;;;;;;3.17;2.40;;;22.80;99.90;;;;;;5020761;28;20625;-70
2023/05/09 13:59:10;;;;;;;1.97;1.73;;;22.80;99.90;;;;;;5016684;28;20446;-70